Ralston, Oklahoma
Current Conditions -  °F | °C
As of 7:53 AM on Monday 20 Oct 2014 (Local Time) from KPNC Reporting Station
Clear Clear  
Wind Chill: 56°   Ceiling: Unl
Heat Index: 56°   Visibility: 10mi
Dew Point: 53°   Wind: 3mph
Humidity: 90%   Direction: 130°SE
Pressure: 30.03"   Gusts: NA
Location:  36.5°N, 96.73°W
Report Text: KPNC 201253Z AUTO 13003KT 10SM CLR 13/12 A3003 RMK AO2 SLP164 T01330117
Loading
Personal Weather Stations






























Interactive Weather Map New forecast layout! Learn more

10-Day Weather Forecast

Advertisements
Track Severe Weather on mobile